Time;durP1;ratioP1;P1;durP2;ratioP2;P2;SDS_P1;SDS_P2;PMS_P1;PMS_P2;Temp;Humidity;BMP_temperature;BMP_pressure;BME280_temperature;BME280_humidity;BME280_pressure;Samples;Min_cycle;Max_cycle;Signal;HPM_P1;HPM_P2
2022/04/22 17:31:02;;;;;;;5.20;4.28;;;17.70;65.50;;;;;;5119907;27;20552;-69
2022/04/22 17:33:30;;;;;;;5.22;4.57;;;17.50;66.20;;;;;;5096696;28;20214;-70
2022/04/22 17:35:57;;;;;;;6.00;5.10;;;17.60;66.70;;;;;;5085207;28;20177;-69
2022/04/22 17:38:23;;;;;;;5.70;4.30;;;17.80;67.20;;;;;;5100503;28;20176;-71
2022/04/22 17:40:51;;;;;;;5.20;4.60;;;17.90;67.10;;;;;;5085018;28;20190;-69
2022/04/22 17:43:17;;;;;;;5.07;4.57;;;18.00;67.20;;;;;;5086115;28;20191;-70
2022/04/22 17:45:45;;;;;;;5.63;4.40;;;18.10;67.20;;;;;;5089167;28;20191;-69
2022/04/22 17:48:11;;;;;;;4.20;3.80;;;18.20;67.10;;;;;;5099894;28;20171;-70
2022/04/22 17:50:37;;;;;;;5.10;4.60;;;18.30;67.20;;;;;;5109430;28;20329;-70
2022/04/22 17:53:09;;;;;;;4.95;3.92;;;18.40;67.20;;;;;;5104873;28;20196;-70
2022/04/22 17:55:35;;;;;;;5.95;4.60;;;18.50;67.10;;;;;;5080257;28;20222;-67
2022/04/22 17:58:01;;;;;;;5.32;4.80;;;18.60;67.10;;;;;;5085337;28;20250;-70
2022/04/22 18:00:26;;;;;;;5.20;4.70;;;18.60;66.90;;;;;;5098547;28;20176;-68
2022/04/22 18:02:52;;;;;;;6.55;5.90;;;18.60;66.80;;;;;;5090248;28;20241;-67
2022/04/22 18:05:22;;;;;;;6.88;6.18;;;18.70;66.90;;;;;;5079033;28;20172;-69
2022/04/22 18:07:54;;;;;;;5.90;5.30;;;18.70;66.90;;;;;;5124731;28;20186;-68
2022/04/22 18:10:19;;;;;;;5.65;4.82;;;18.70;66.90;;;;;;5090414;28;20241;-68
2022/04/22 18:12:45;;;;;;;5.78;4.68;;;18.70;66.80;;;;;;5101554;28;20196;-68
2022/04/22 18:17:55;;;;;;;5.35;4.85;;;18.70;66.80;;;;;;5076636;28;20238;-68
2022/04/22 18:20:23;;;;;;;6.25;5.38;;;18.70;66.70;;;;;;5087086;28;20181;-68
2022/04/22 18:22:52;;;;;;;5.13;4.63;;;18.70;66.70;;;;;;5073392;28;20191;-68
2022/04/22 18:25:20;;;;;;;5.45;4.88;;;18.60;66.60;;;;;;5086655;28;20195;-68
2022/04/22 18:27:48;;;;;;;5.55;4.80;;;18.60;66.60;;;;;;5090417;28;20254;-68
2022/04/22 18:30:15;;;;;;;5.00;4.50;;;18.60;66.60;;;;;;5100599;28;20208;-68
2022/04/22 18:32:41;;;;;;;5.03;4.05;;;18.50;66.50;;;;;;5096103;28;20193;-68
2022/04/22 18:35:10;;;;;;;4.80;4.40;;;18.50;66.50;;;;;;5076127;28;20176;-68
2022/04/22 18:37:41;;;;;;;4.95;4.45;;;18.50;66.70;;;;;;5088319;28;20175;-68
2022/04/22 18:40:07;;;;;;;5.40;4.47;;;18.40;66.70;;;;;;5088240;28;20172;-67
2022/04/22 18:42:33;;;;;;;4.93;4.25;;;18.40;66.80;;;;;;5073849;28;20206;-67
2022/04/22 18:44:59;;;;;;;4.45;4.05;;;18.30;66.80;;;;;;5075929;28;20172;-67
2022/04/22 18:47:26;;;;;;;5.15;4.32;;;18.30;66.90;;;;;;5062189;28;20186;-68
2022/04/22 18:49:52;;;;;;;5.63;4.28;;;18.20;67.00;;;;;;5119930;27;20197;-68
2022/04/22 18:52:18;;;;;;;5.00;4.03;;;18.20;67.10;;;;;;5075727;28;20177;-69
2022/04/22 18:54:45;;;;;;;4.10;3.70;;;18.20;67.20;;;;;;5063280;28;20174;-69
2022/04/22 18:57:12;;;;;;;5.18;4.63;;;18.10;67.20;;;;;;5106008;28;20173;-69
2022/04/22 18:59:43;;;;;;;6.80;4.97;;;18.10;67.40;;;;;;5066664;28;20201;-67
2022/04/22 19:02:09;;;;;;;5.07;4.15;;;18.00;67.60;;;;;;5073496;28;20181;-68
2022/04/22 19:04:35;;;;;;;6.03;4.65;;;18.00;67.30;;;;;;5113567;27;20178;-69
2022/04/22 19:07:00;;;;;;;5.95;5.35;;;18.00;67.40;;;;;;5081956;28;20232;-67
2022/04/22 19:09:26;;;;;;;6.10;5.50;;;17.90;67.40;;;;;;5074990;28;20200;-69
2022/04/22 19:11:52;;;;;;;6.20;5.60;;;17.90;67.60;;;;;;5076031;28;20176;-69
2022/04/22 19:14:19;;;;;;;5.60;5.10;;;17.90;67.80;;;;;;5076927;28;20200;-68
2022/04/22 19:16:45;;;;;;;6.20;5.22;;;17.80;67.50;;;;;;5070625;28;20177;-68
2022/04/22 19:19:10;;;;;;;5.85;4.97;;;17.80;67.70;;;;;;5068504;28;20190;-68
2022/04/22 19:21:38;;;;;;;5.70;5.20;;;17.70;67.60;;;;;;5068737;28;20264;-67
2022/04/22 19:24:06;;;;;;;5.43;4.90;;;17.70;67.70;;;;;;5072096;28;20177;-68
2022/04/22 19:26:33;;;;;;;4.75;4.18;;;17.70;68.00;;;;;;5071496;28;20192;-69
2022/04/22 19:29:02;;;;;;;4.63;4.20;;;17.70;68.50;;;;;;5075052;28;20204;-69
2022/04/22 19:31:27;;;;;;;5.28;4.78;;;17.60;67.90;;;;;;5060971;28;20166;-69
2022/04/22 19:33:55;;;;;;;5.40;4.72;;;17.60;67.90;;;;;;5081608;28;20196;-69
2022/04/22 19:41:54;;;;;;;5.07;4.57;;;17.40;67.90;;;;;;5060009;28;20211;-69
2022/04/22 19:44:20;;;;;;;4.90;4.32;;;17.40;68.40;;;;;;5072676;28;20184;-69
2022/04/22 19:46:46;;;;;;;5.15;4.60;;;17.40;68.80;;;;;;5066282;28;20226;-68
2022/04/22 19:49:17;;;;;;;5.07;4.18;;;17.30;68.60;;;;;;5071300;28;20203;-69
2022/04/22 19:51:42;;;;;;;4.90;4.40;;;17.30;68.70;;;;;;5081458;28;20169;-69
2022/04/22 19:54:10;;;;;;;5.00;4.50;;;17.30;68.60;;;;;;5069829;28;20201;-69
2022/04/22 19:56:39;;;;;;;5.07;4.57;;;17.20;68.80;;;;;;5078296;28;20203;-69
2022/04/22 19:59:07;;;;;;;5.05;4.35;;;17.20;69.10;;;;;;5077918;28;20198;-69
2022/04/22 20:01:34;;;;;;;5.68;4.30;;;17.20;69.10;;;;;;5069501;28;20261;-69
2022/04/22 20:04:03;;;;;;;7.20;4.72;;;17.20;69.30;;;;;;5064066;28;20211;-69
2022/04/22 20:06:37;;;;;;;4.97;4.25;;;17.20;69.50;;;;;;5112484;27;20173;-70
2022/04/22 20:09:05;;;;;;;4.82;3.83;;;17.20;69.50;;;;;;5069604;28;20222;-70
2022/04/22 20:11:33;;;;;;;5.40;4.90;;;17.20;69.60;;;;;;5102064;28;20177;-69
2022/04/22 20:13:59;;;;;;;4.38;3.97;;;17.10;69.90;;;;;;5069935;28;20200;-69
2022/04/22 20:16:24;;;;;;;4.85;4.35;;;17.10;69.70;;;;;;5096760;28;20169;-69
2022/04/22 20:18:52;;;;;;;5.40;4.60;;;17.10;69.80;;;;;;5071171;28;20212;-69
2022/04/22 20:21:18;;;;;;;4.72;4.28;;;17.10;70.30;;;;;;5062312;28;20193;-69
2022/04/22 20:23:45;;;;;;;4.72;4.22;;;17.10;70.10;;;;;;5063073;28;20173;-69
2022/04/22 20:26:14;;;;;;;4.25;3.85;;;17.00;70.70;;;;;;5070941;28;20169;-69
2022/04/22 20:28:40;;;;;;;4.30;3.90;;;17.00;70.10;;;;;;5063962;28;20165;-69
2022/04/22 20:31:17;;;;;;;4.68;3.88;;;17.00;70.80;;;;;;5070155;28;20222;-69
2022/04/22 20:33:42;;;;;;;5.20;4.70;;;17.00;70.40;;;;;;5073250;28;20204;-70
2022/04/22 20:41:41;;;;;;;4.78;4.30;;;16.90;70.40;;;;;;5076103;28;20203;-69
2022/04/22 20:44:09;;;;;;;5.55;4.00;;;16.80;70.30;;;;;;5072787;28;20197;-70
2022/04/22 20:46:37;;;;;;;5.07;4.10;;;16.80;70.50;;;;;;5073943;28;20247;-67
2022/04/22 20:49:03;;;;;;;4.50;4.10;;;16.80;70.90;;;;;;5074337;28;20191;-68
2022/04/22 20:51:31;;;;;;;4.22;3.83;;;16.70;70.90;;;;;;5081991;28;20294;-69
2022/04/22 20:54:01;;;;;;;5.63;5.03;;;16.70;71.60;;;;;;5089641;28;20165;-68
2022/04/22 20:56:29;;;;;;;5.03;4.35;;;16.60;71.30;;;;;;5073854;28;20243;-66
2022/04/22 20:58:56;;;;;;;4.47;3.83;;;16.60;71.40;;;;;;5087806;28;20169;-68
2022/04/22 21:01:22;;;;;;;5.75;5.03;;;16.60;71.40;;;;;;5098725;28;20203;-69
2022/04/22 21:03:50;;;;;;;5.60;4.63;;;16.50;72.20;;;;;;5061048;28;20189;-69
2022/04/22 21:06:18;;;;;;;5.13;4.63;;;16.50;72.10;;;;;;5073790;28;20188;-68
2022/04/22 21:08:44;;;;;;;4.70;4.20;;;16.50;72.40;;;;;;5077929;28;20185;-69
2022/04/22 21:11:10;;;;;;;4.82;3.70;;;16.50;72.20;;;;;;5054031;28;20169;-68
2022/04/22 21:13:41;;;;;;;5.13;4.30;;;16.40;72.20;;;;;;5098186;28;20169;-68
2022/04/22 21:16:07;;;;;;;4.97;4.15;;;16.40;72.30;;;;;;5075887;28;20177;-68
2022/04/22 21:18:33;;;;;;;5.70;4.28;;;16.40;72.50;;;;;;5061896;28;20338;-68
2022/04/22 21:21:05;;;;;;;4.97;4.47;;;16.40;72.90;;;;;;5071441;28;20200;-69
2022/04/22 21:23:31;;;;;;;4.28;3.63;;;16.40;73.10;;;;;;5072878;28;20184;-69
2022/04/22 21:25:59;;;;;;;4.50;4.10;;;16.40;73.00;;;;;;5065539;28;20204;-69
2022/04/22 21:28:25;;;;;;;4.63;4.22;;;16.30;73.30;;;;;;5071048;28;20183;-69
2022/04/22 21:30:51;;;;;;;4.35;3.95;;;16.30;73.90;;;;;;5091414;28;20306;-69
2022/04/22 21:33:19;;;;;;;4.95;4.25;;;16.30;73.60;;;;;;5069363;28;20196;-69
2022/04/22 21:35:45;;;;;;;4.13;3.72;;;16.30;73.80;;;;;;5067917;28;20430;-67
2022/04/22 21:38:12;;;;;;;5.38;4.15;;;16.30;73.60;;;;;;5074552;28;20183;-69
2022/04/22 21:40:44;;;;;;;4.22;3.83;;;16.30;73.80;;;;;;5075858;28;20305;-68
2022/04/22 21:43:12;;;;;;;4.68;4.20;;;16.30;74.40;;;;;;5073737;28;20279;-67
2022/04/22 21:45:41;;;;;;;4.80;4.20;;;16.30;74.40;;;;;;5078827;28;20180;-68
2022/04/22 21:48:10;;;;;;;4.40;4.00;;;16.20;74.30;;;;;;5095625;28;20188;-67
2022/04/22 21:50:36;;;;;;;5.57;4.25;;;16.20;74.70;;;;;;5077692;28;20229;-69
2022/04/22 21:53:06;;;;;;;4.68;4.00;;;16.20;74.50;;;;;;5104405;28;20200;-69
2022/04/22 21:55:34;;;;;;;4.82;4.30;;;16.20;74.60;;;;;;5096086;28;20257;-68
2022/04/22 21:57:59;;;;;;;4.75;4.18;;;16.20;74.50;;;;;;5091675;28;20169;-69
2022/04/22 22:00:47;;;;;;;5.55;4.50;;;16.10;74.60;;;;;;5101462;28;20188;-69
2022/04/22 22:03:16;;;;;;;5.00;4.50;;;16.10;75.30;;;;;;5073855;28;20201;-69
2022/04/22 22:05:44;;;;;;;4.80;4.05;;;16.10;75.00;;;;;;5057674;28;20991;-70
2022/04/22 22:08:10;;;;;;;5.00;4.50;;;16.00;74.90;;;;;;5062622;28;20186;-71
2022/04/22 22:10:40;;;;;;;4.20;3.65;;;16.00;74.80;;;;;;5064058;28;20479;-69
2022/04/22 22:13:09;;;;;;;4.60;4.15;;;15.90;75.00;;;;;;5086972;28;20283;-69
2022/04/22 22:15:36;;;;;;;4.55;4.15;;;15.90;75.40;;;;;;5071475;28;20230;-69
2022/04/22 22:18:03;;;;;;;4.95;4.45;;;15.80;75.20;;;;;;5086364;28;20176;-68
2022/04/22 22:20:32;;;;;;;6.00;4.60;;;15.80;75.60;;;;;;5086834;28;20184;-68
2022/04/22 22:22:58;;;;;;;5.40;4.68;;;15.70;75.70;;;;;;5075104;28;20184;-68
2022/04/22 22:25:24;;;;;;;4.40;4.00;;;15.70;75.70;;;;;;5064384;28;20253;-69
2022/04/22 22:27:50;;;;;;;4.63;4.22;;;15.60;76.10;;;;;;5071064;28;20184;-69
2022/04/22 22:30:16;;;;;;;4.47;4.00;;;15.60;76.00;;;;;;5102545;28;20212;-69
2022/04/22 22:32:42;;;;;;;4.70;4.20;;;15.60;76.10;;;;;;5064054;28;20192;-69
2022/04/22 22:35:08;;;;;;;6.00;4.47;;;15.50;76.40;;;;;;5090570;28;20259;-69
2022/04/22 22:37:36;;;;;;;5.10;4.60;;;15.50;76.50;;;;;;5070998;28;20173;-69
2022/04/22 22:40:03;;;;;;;5.30;4.70;;;15.40;76.80;;;;;;5107844;28;20204;-67
2022/04/22 22:42:28;;;;;;;4.53;4.13;;;15.40;77.00;;;;;;5091032;28;20259;-69
2022/04/22 22:44:54;;;;;;;5.35;4.38;;;15.40;76.90;;;;;;5076453;28;20207;-69
2022/04/22 22:47:19;;;;;;;4.70;4.10;;;15.30;77.20;;;;;;5076333;28;20190;-68
2022/04/22 22:49:45;;;;;;;4.38;3.97;;;15.30;77.30;;;;;;5072650;28;20193;-69
2022/04/22 22:52:11;;;;;;;4.43;4.03;;;15.30;77.40;;;;;;5089992;28;20193;-70
2022/04/22 22:54:36;;;;;;;4.55;3.97;;;15.20;77.30;;;;;;5090147;28;20177;-69
2022/04/22 22:57:04;;;;;;;4.80;4.00;;;15.20;77.50;;;;;;5089742;28;20173;-69
2022/04/22 22:59:31;;;;;;;5.25;4.68;;;15.10;78.30;;;;;;5065266;28;20207;-68
2022/04/22 23:01:56;;;;;;;6.07;4.65;;;15.20;78.60;;;;;;5072449;28;20177;-71
2022/04/22 23:04:22;;;;;;;4.68;4.20;;;15.10;78.20;;;;;;5068694;28;20168;-68
2022/04/22 23:06:49;;;;;;;5.72;4.90;;;15.10;78.50;;;;;;5093436;28;20266;-69
2022/04/22 23:09:14;;;;;;;6.13;4.65;;;15.10;79.90;;;;;;5093541;28;20283;-69
2022/04/22 23:11:43;;;;;;;5.72;4.78;;;15.10;79.10;;;;;;5079602;28;20243;-67
2022/04/22 23:14:09;;;;;;;5.32;4.38;;;15.00;79.00;;;;;;5077979;28;20189;-68
2022/04/22 23:16:35;;;;;;;5.97;4.95;;;15.00;79.10;;;;;;5082999;28;20248;-68
2022/04/22 23:19:02;;;;;;;5.68;4.72;;;15.00;79.50;;;;;;5074294;28;20283;-68
2022/04/22 23:21:32;;;;;;;5.30;4.78;;;14.90;79.50;;;;;;5068165;28;20223;-69
2022/04/22 23:24:00;;;;;;;6.68;5.28;;;14.90;80.10;;;;;;5057787;28;20227;-67
2022/04/22 23:26:26;;;;;;;4.57;4.18;;;14.90;80.30;;;;;;5076813;28;20219;-68
2022/04/22 23:28:59;;;;;;;6.10;4.38;;;14.90;80.10;;;;;;5083614;28;20186;-68
2022/04/22 23:31:26;;;;;;;5.95;5.03;;;14.80;80.50;;;;;;5074662;28;20177;-67
2022/04/22 23:33:52;;;;;;;6.68;5.68;;;14.80;80.80;;;;;;5070444;28;20185;-68
2022/04/22 23:36:18;;;;;;;6.00;5.00;;;14.70;81.80;;;;;;5081411;28;20229;-68
2022/04/22 23:38:45;;;;;;;5.53;4.50;;;14.70;81.20;;;;;;5085208;28;20201;-67
2022/04/22 23:41:11;;;;;;;6.57;4.60;;;14.70;81.80;;;;;;5076162;28;20172;-68
2022/04/22 23:43:37;;;;;;;5.45;4.22;;;14.60;81.10;;;;;;5109794;27;20220;-68
2022/04/22 23:46:05;;;;;;;5.20;4.60;;;14.60;81.10;;;;;;5070253;28;20193;-68
2022/04/22 23:48:33;;;;;;;4.90;4.40;;;14.50;81.00;;;;;;5055720;28;20256;-68
2022/04/22 23:51:03;;;;;;;9.32;4.95;;;14.50;81.50;;;;;;5069253;28;20193;-69
2022/04/22 23:53:31;;;;;;;5.95;4.28;;;14.50;81.30;;;;;;5074919;28;20193;-68
2022/04/22 23:55:59;;;;;;;5.97;5.32;;;14.50;81.60;;;;;;5097147;28;20199;-68
2022/04/22 23:58:29;;;;;;;5.13;4.53;;;14.40;82.10;;;;;;5118234;27;20210;-68
